createdAt,value
2023-03-12T00:01:51.987Z,98952.94
2023-03-12T00:04:24.263Z,98950.64
2023-03-12T00:06:56.773Z,98951.40
2023-03-12T00:09:29.377Z,98943.00
2023-03-12T00:12:01.647Z,98942.02
2023-03-12T00:14:34.136Z,98938.57
2023-03-12T00:17:06.469Z,98939.98
2023-03-12T00:19:38.562Z,98936.95
2023-03-12T00:22:10.897Z,98934.75
2023-03-12T00:24:43.288Z,98937.52
2023-03-12T00:27:15.550Z,98937.92
2023-03-12T00:29:47.906Z,98933.55
2023-03-12T00:32:20.791Z,98936.96
2023-03-12T00:34:56.516Z,98932.07
2023-03-12T00:37:28.800Z,98927.75
2023-03-12T00:40:02.398Z,98924.60
2023-03-12T00:42:34.914Z,98922.27
2023-03-12T00:45:08.878Z,98924.30
2023-03-12T00:47:41.291Z,98923.73
2023-03-12T00:50:13.956Z,98925.72
2023-03-12T00:52:46.622Z,98920.30
2023-03-12T00:55:19.181Z,98916.52
2023-03-12T00:57:51.726Z,98912.51
2023-03-12T01:00:26.118Z,98913.89
2023-03-12T01:02:59.404Z,98910.06
2023-03-12T01:05:34.092Z,98906.06
2023-03-12T01:08:08.173Z,98903.14
2023-03-12T01:10:43.945Z,98903.48
2023-03-12T01:13:16.218Z,98898.97
2023-03-12T01:15:48.498Z,98891.80
2023-03-12T01:18:21.038Z,98895.33
2023-03-12T01:20:53.590Z,98897.26
2023-03-12T01:23:25.947Z,98892.05
2023-03-12T01:25:59.503Z,98889.46
2023-03-12T01:28:31.808Z,98890.33
2023-03-12T01:31:11.329Z,98892.15
2023-03-12T01:33:43.829Z,98894.97
2023-03-12T01:36:21.717Z,98894.10
2023-03-12T01:38:55.423Z,98893.80
2023-03-12T01:41:30.167Z,98892.80
2023-03-12T01:44:04.061Z,98890.51
2023-03-12T01:46:39.089Z,98888.63
2023-03-12T01:49:21.040Z,98885.08
2023-03-12T01:51:59.862Z,98887.46
2023-03-12T01:54:36.779Z,98887.98
2023-03-12T01:57:14.634Z,98888.44
2023-03-12T01:59:49.982Z,98885.58
2023-03-12T02:02:27.062Z,98885.29
2023-03-12T02:05:08.479Z,98886.09
2023-03-12T02:07:40.869Z,98889.15
2023-03-12T02:10:14.436Z,98883.33
2023-03-12T02:12:46.911Z,98891.75
2023-03-12T02:15:19.933Z,98887.41
2023-03-12T02:17:54.274Z,98881.10
2023-03-12T02:20:35.756Z,98879.44
2023-03-12T02:23:11.471Z,98881.38
2023-03-12T02:25:47.653Z,98884.77
2023-03-12T02:28:23.754Z,98886.17
2023-03-12T02:31:01.595Z,98888.82
2023-03-12T02:33:33.961Z,98890.16
2023-03-12T02:36:09.408Z,98889.16
2023-03-12T02:38:46.879Z,98895.83
2023-03-12T02:41:23.650Z,98892.75
2023-03-12T02:44:04.077Z,98895.74
2023-03-12T02:46:40.929Z,98902.11
2023-03-12T02:49:13.928Z,98905.09
2023-03-12T02:51:47.436Z,98906.25
2023-03-12T02:54:21.340Z,98905.36
2023-03-12T02:56:55.233Z,98902.27
2023-03-12T02:59:28.546Z,98898.63
2023-03-12T03:02:04.537Z,98895.83
2023-03-12T03:04:36.896Z,98899.40
2023-03-12T03:07:09.512Z,98899.10
2023-03-12T03:09:41.858Z,98903.42
2023-03-12T03:12:14.445Z,98899.86
2023-03-12T03:14:47.247Z,98902.96
2023-03-12T03:17:19.546Z,98908.98
2023-03-12T03:19:52.009Z,98910.73
2023-03-12T03:22:24.760Z,98914.73
2023-03-12T03:24:57.367Z,98919.80
2023-03-12T03:27:29.759Z,98924.52
2023-03-12T03:30:02.436Z,98926.82
2023-03-12T03:32:36.904Z,98931.53
2023-03-12T03:35:11.930Z,98931.00
2023-03-12T03:37:44.349Z,98934.43
2023-03-12T03:40:16.886Z,98938.58
2023-03-12T03:42:49.340Z,98938.14
2023-03-12T03:45:21.829Z,98931.78
2023-03-12T03:47:54.687Z,98931.33
2023-03-12T03:50:27.216Z,98929.70
2023-03-12T03:53:00.118Z,98936.05
2023-03-12T03:55:32.607Z,98938.91
2023-03-12T03:58:04.943Z,98942.48
2023-03-12T04:00:37.480Z,98942.42
2023-03-12T04:03:09.929Z,98942.32
2023-03-12T04:05:45.464Z,98939.20
2023-03-12T04:08:18.245Z,98945.81
2023-03-12T04:10:50.709Z,98943.80
2023-03-12T04:13:23.388Z,98945.36
2023-03-12T04:15:56.567Z,98949.34
2023-03-12T04:18:29.232Z,98956.86
2023-03-12T04:21:01.564Z,98966.58
2023-03-12T04:23:34.349Z,98975.80
2023-03-12T04:26:08.291Z,98978.17
2023-03-12T04:28:41.043Z,98986.19
2023-03-12T04:31:14.960Z,98986.52
2023-03-12T04:33:54.852Z,98986.40
2023-03-12T04:36:28.849Z,98990.34
2023-03-12T04:39:01.733Z,98992.22
2023-03-12T04:41:37.953Z,98995.39
2023-03-12T04:44:14.438Z,98992.48
2023-03-12T04:46:46.884Z,98994.98
2023-03-12T04:49:22.181Z,98994.89
2023-03-12T04:51:54.851Z,98999.79
2023-03-12T04:54:27.260Z,99004.92
2023-03-12T04:56:59.653Z,99007.03
2023-03-12T04:59:32.282Z,99015.25
2023-03-12T05:02:04.757Z,99015.98
2023-03-12T05:04:37.454Z,99020.71
2023-03-12T05:07:09.900Z,99024.47
2023-03-12T05:09:44.210Z,99025.80
2023-03-12T05:12:16.968Z,99025.70
2023-03-12T05:14:49.335Z,99024.05
2023-03-12T05:17:21.743Z,99025.83
2023-03-12T05:19:54.367Z,99022.36
2023-03-12T05:22:26.864Z,99020.48
2023-03-12T05:24:59.914Z,99018.25
2023-03-12T05:27:32.403Z,99021.23
2023-03-12T05:30:05.873Z,99030.94
2023-03-12T05:32:38.376Z,99036.39
2023-03-12T05:35:13.423Z,99039.45
2023-03-12T05:37:45.943Z,99044.80
2023-03-12T05:40:18.768Z,99053.22
2023-03-12T05:42:51.019Z,99050.08
2023-03-12T05:45:23.899Z,99047.72
2023-03-12T05:47:58.748Z,99052.53
2023-03-12T05:50:32.754Z,99054.32
2023-03-12T05:53:05.046Z,99061.06
2023-03-12T05:55:39.441Z,99061.73
2023-03-12T05:58:12.376Z,99065.43
2023-03-12T06:00:45.174Z,99069.66
2023-03-12T06:03:18.572Z,99068.49
2023-03-12T06:05:55.155Z,99072.55
2023-03-12T06:08:28.459Z,99071.98
2023-03-12T06:11:00.774Z,99074.87
2023-03-12T06:13:34.152Z,99077.79
2023-03-12T06:16:10.334Z,99076.52
2023-03-12T06:18:43.044Z,99084.09
2023-03-12T06:21:18.613Z,99089.77
2023-03-12T06:23:52.141Z,99093.66
2023-03-12T06:26:29.800Z,99099.77
2023-03-12T06:29:02.107Z,99101.58
2023-03-12T06:31:37.257Z,99109.22
2023-03-12T06:34:11.377Z,99116.17
2023-03-12T06:36:43.701Z,99124.58
2023-03-12T06:39:16.003Z,99130.16
2023-03-12T06:41:48.447Z,99130.45
2023-03-12T06:44:20.829Z,99129.33
2023-03-12T06:46:53.879Z,99131.41
2023-03-12T06:49:27.505Z,99140.30
2023-03-12T06:51:59.820Z,99144.18
2023-03-12T06:54:32.216Z,99143.71
2023-03-12T06:57:04.683Z,99148.30
2023-03-12T06:59:36.972Z,99153.36
2023-03-12T07:02:11.444Z,99157.07
2023-03-12T07:04:43.790Z,99159.26
2023-03-12T07:07:17.201Z,99166.67
2023-03-12T07:09:49.512Z,99167.84
2023-03-12T07:12:21.837Z,99166.07
2023-03-12T07:14:54.201Z,99167.04
2023-03-12T07:17:27.422Z,99170.77
2023-03-12T07:20:01.172Z,99172.14
2023-03-12T07:22:33.579Z,99172.52
2023-03-12T07:25:06.437Z,99173.73
2023-03-12T07:27:38.727Z,99181.68
2023-03-12T07:30:14.877Z,99180.78
2023-03-12T07:32:47.167Z,99186.84
2023-03-12T07:35:19.795Z,99188.66
2023-03-12T07:37:52.157Z,99186.39
2023-03-12T07:40:24.712Z,99186.42
2023-03-12T07:42:57.699Z,99190.11
2023-03-12T07:45:30.318Z,99191.42
2023-03-12T07:48:02.772Z,99192.85
2023-03-12T07:50:35.443Z,99194.08
2023-03-12T07:53:08.349Z,99192.48
2023-03-12T07:55:40.723Z,99194.48
2023-03-12T07:58:14.009Z,99200.15
2023-03-12T08:00:46.672Z,99203.15
2023-03-12T08:03:19.357Z,99195.69
2023-03-12T08:06:01.517Z,99204.48
2023-03-12T08:08:34.417Z,99212.56
2023-03-12T08:11:07.544Z,99219.05
2023-03-12T08:13:39.837Z,99219.82
2023-03-12T08:16:12.693Z,99217.23
2023-03-12T08:18:45.624Z,99228.17
2023-03-12T08:21:18.014Z,99229.73
2023-03-12T08:23:50.326Z,99237.27
2023-03-12T08:26:22.599Z,99244.96
2023-03-12T08:28:55.038Z,99252.91
2023-03-12T08:31:27.362Z,99255.65
2023-03-12T08:34:00.168Z,99257.58
2023-03-12T08:36:32.829Z,99258.02
2023-03-12T08:39:05.143Z,99260.52
2023-03-12T08:41:37.394Z,99260.95
2023-03-12T08:44:10.531Z,99264.04
2023-03-12T08:46:42.722Z,99260.55
2023-03-12T08:49:15.171Z,99265.38
2023-03-12T08:51:47.540Z,99264.73
2023-03-12T08:54:20.253Z,99268.50
2023-03-12T08:56:54.434Z,99270.52
2023-03-12T08:59:26.982Z,99279.13
2023-03-12T09:01:59.355Z,99278.21
2023-03-12T09:04:31.925Z,99274.38
2023-03-12T09:07:05.101Z,99272.73
2023-03-12T09:09:37.468Z,99279.20
2023-03-12T09:12:10.527Z,99285.23
2023-03-12T09:15:02.426Z,99292.75
2023-03-12T09:17:35.471Z,99293.98
2023-03-12T09:20:14.082Z,99293.73
2023-03-12T09:22:46.759Z,99292.79
2023-03-12T09:25:19.625Z,99287.47
2023-03-12T09:27:52.008Z,99297.91
2023-03-12T09:30:26.493Z,99297.92
2023-03-12T09:32:59.006Z,99298.56
2023-03-12T09:35:31.752Z,99304.27
2023-03-12T09:38:04.652Z,99312.62
2023-03-12T09:40:40.069Z,99321.08
2023-03-12T09:43:19.814Z,99319.61
2023-03-12T09:45:53.032Z,99325.68
2023-03-12T09:48:32.394Z,99325.83
2023-03-12T09:51:09.454Z,99327.16
2023-03-12T09:53:47.213Z,99330.52
2023-03-12T09:56:22.241Z,99329.71
2023-03-12T09:58:55.861Z,99330.79
2023-03-12T10:01:38.773Z,99335.68
2023-03-12T10:04:29.358Z,99337.89
2023-03-12T10:07:11.452Z,99333.52
2023-03-12T10:10:27.931Z,99338.74
2023-03-12T10:13:12.877Z,99338.96
2023-03-12T10:15:55.927Z,99344.09
2023-03-12T10:18:40.047Z,99342.05
2023-03-12T10:21:25.660Z,99343.23
2023-03-12T10:24:05.282Z,99342.58
2023-03-12T10:26:41.011Z,99347.36
2023-03-12T10:29:18.543Z,99354.14
2023-03-12T10:32:00.521Z,99353.81
2023-03-12T10:34:40.376Z,99350.18
2023-03-12T10:37:21.294Z,99356.25
2023-03-12T10:39:55.562Z,99352.54
2023-03-12T10:42:29.643Z,99364.10
2023-03-12T10:45:14.638Z,99371.37
2023-03-12T10:47:51.155Z,99370.90
2023-03-12T10:50:25.786Z,99369.34
2023-03-12T10:53:15.157Z,99377.36
2023-03-12T10:56:01.388Z,99376.80
2023-03-12T10:58:39.226Z,99377.73
2023-03-12T11:01:22.969Z,99386.12
2023-03-12T11:04:10.454Z,99385.41
2023-03-12T11:06:42.904Z,99391.45
2023-03-12T11:09:20.843Z,99396.00
2023-03-12T11:11:53.801Z,99397.47
2023-03-12T11:14:28.293Z,99400.69
2023-03-12T11:17:24.776Z,99399.39
2023-03-12T11:19:57.394Z,99399.88
2023-03-12T11:22:35.308Z,99396.77
2023-03-12T11:25:21.176Z,99402.79
2023-03-12T11:27:56.305Z,99404.44
2023-03-12T11:30:37.829Z,99406.42
2023-03-12T11:33:12.584Z,99407.99
2023-03-12T11:35:52.278Z,99407.88
2023-03-12T11:38:32.262Z,99408.78
2023-03-12T11:41:19.644Z,99407.36
2023-03-12T11:44:04.183Z,99402.05
2023-03-12T11:46:49.585Z,99404.71
2023-03-12T11:49:27.874Z,99408.10
2023-03-12T11:52:06.185Z,99416.44
2023-03-12T11:55:02.641Z,99408.79
2023-03-12T11:57:42.395Z,99410.58
2023-03-12T12:00:20.576Z,99413.84
2023-03-12T12:03:17.784Z,99414.61
2023-03-12T12:06:00.881Z,99422.20
2023-03-12T12:08:50.481Z,99422.15
2023-03-12T12:11:34.191Z,99428.42
2023-03-12T12:14:18.130Z,99430.18
2023-03-12T12:17:06.743Z,99429.83
2023-03-12T12:19:53.779Z,99436.09
2023-03-12T12:22:37.455Z,99430.02
2023-03-12T12:25:39.593Z,99426.79
2023-03-12T12:28:55.873Z,99433.79
2023-03-12T12:31:41.751Z,99440.60
2023-03-12T12:34:43.530Z,99443.70
2023-03-12T12:37:30.394Z,99446.55
2023-03-12T12:40:14.016Z,99445.30
2023-03-12T12:42:53.721Z,99443.42
2023-03-12T12:45:30.985Z,99448.80
2023-03-12T12:48:08.431Z,99452.16
2023-03-12T12:50:42.998Z,99453.94
2023-03-12T12:53:25.205Z,99453.45
2023-03-12T12:56:07.429Z,99450.64
2023-03-12T12:59:15.151Z,99445.02
2023-03-12T13:01:47.612Z,99449.77
2023-03-12T13:04:25.837Z,99448.71
2023-03-12T13:07:05.301Z,99453.80
2023-03-12T13:09:44.489Z,99455.52
2023-03-12T13:12:27.326Z,99460.05
2023-03-12T13:15:01.637Z,99462.17
2023-03-12T13:17:36.979Z,99462.95
2023-03-12T13:20:20.885Z,99461.83
2023-03-12T13:23:26.252Z,99466.66
2023-03-12T13:26:04.973Z,99468.44
2023-03-12T13:29:11.234Z,99468.67
2023-03-12T13:31:45.706Z,99474.55
2023-03-12T13:34:46.322Z,99475.10
2023-03-12T13:37:59.378Z,99478.56
2023-03-12T13:40:55.656Z,99479.67
2023-03-12T13:43:51.103Z,99479.21
2023-03-12T13:46:45.457Z,99483.31
2023-03-12T13:49:20.067Z,99486.39
2023-03-12T13:52:02.601Z,99489.09
2023-03-12T13:54:42.818Z,99493.77
2023-03-12T13:57:26.192Z,99500.20
2023-03-12T13:59:59.866Z,99506.38
2023-03-12T14:02:35.619Z,99504.80
2023-03-12T14:05:11.652Z,99510.45
2023-03-12T14:08:10.977Z,99513.93
2023-03-12T14:11:04.658Z,99517.60
2023-03-12T14:14:04.427Z,99520.41
2023-03-12T14:16:43.191Z,99522.23
2023-03-12T14:19:19.744Z,99526.40
2023-03-12T14:21:54.164Z,99522.33
2023-03-12T14:24:29.459Z,99524.03
2023-03-12T14:27:05.864Z,99524.73
2023-03-12T14:29:43.613Z,99526.67
2023-03-12T14:32:20.889Z,99533.27
2023-03-12T14:34:59.864Z,99526.14
2023-03-12T14:37:38.001Z,99528.23
2023-03-12T14:40:23.100Z,99527.84
2023-03-12T14:42:56.784Z,99530.78
2023-03-12T14:45:30.146Z,99530.96
2023-03-12T14:48:02.535Z,99530.89
2023-03-12T14:50:40.882Z,99533.13
2023-03-12T14:53:21.128Z,99537.90
2023-03-12T14:56:04.443Z,99538.70
2023-03-12T14:58:43.481Z,99534.91
2023-03-12T15:01:20.084Z,99535.11
2023-03-12T15:03:56.505Z,99535.27
2023-03-12T15:06:32.121Z,99542.84
2023-03-12T15:09:07.663Z,99544.52
2023-03-12T15:11:40.573Z,99541.83
2023-03-12T15:14:17.178Z,99541.19
2023-03-12T15:16:50.166Z,99541.94
2023-03-12T15:19:28.877Z,99542.47
2023-03-12T15:22:01.732Z,99547.23
2023-03-12T15:24:41.162Z,99547.55
2023-03-12T15:27:31.507Z,99547.55
2023-03-12T15:30:17.530Z,99550.88
2023-03-12T15:33:07.092Z,99553.95
2023-03-12T15:35:42.344Z,99553.51
2023-03-12T15:38:20.657Z,99556.72
2023-03-12T15:40:56.221Z,99554.45
2023-03-12T15:43:28.686Z,99551.57
2023-03-12T15:46:03.318Z,99549.06
2023-03-12T15:48:39.502Z,99550.49
2023-03-12T15:51:28.609Z,99549.37
2023-03-12T15:54:23.345Z,99552.61
2023-03-12T15:56:55.964Z,99553.86
2023-03-12T15:59:29.606Z,99553.95
2023-03-12T16:02:02.009Z,99558.08
2023-03-12T16:04:34.296Z,99559.39
2023-03-12T16:07:11.752Z,99561.88
2023-03-12T16:09:44.688Z,99558.96
2023-03-12T16:12:16.994Z,99562.89
2023-03-12T16:14:50.720Z,99564.27
2023-03-12T16:17:24.536Z,99557.05
2023-03-12T16:19:56.858Z,99554.38
2023-03-12T16:22:29.249Z,99551.44
2023-03-12T16:25:01.517Z,99555.80
2023-03-12T16:27:39.205Z,99557.80
2023-03-12T16:30:17.868Z,99562.70
2023-03-12T16:32:50.229Z,99560.89
2023-03-12T16:35:23.677Z,99563.59
2023-03-12T16:37:56.946Z,99562.27
2023-03-12T16:40:33.879Z,99564.13
2023-03-12T16:43:08.724Z,99559.06
2023-03-12T16:45:46.991Z,99562.61
2023-03-12T16:48:21.900Z,99568.95
2023-03-12T16:50:56.764Z,99573.47
2023-03-12T16:53:29.470Z,99576.76
2023-03-12T16:56:02.941Z,99578.92
2023-03-12T16:58:35.265Z,99580.33
2023-03-12T17:01:12.648Z,99576.90
2023-03-12T17:03:49.568Z,99578.77
2023-03-12T17:06:24.487Z,99576.44
2023-03-12T17:08:57.732Z,99577.12
2023-03-12T17:11:33.816Z,99580.39
2023-03-12T17:14:19.163Z,99582.70
2023-03-12T17:16:55.331Z,99584.55
2023-03-12T17:19:31.338Z,99588.02
2023-03-12T17:22:09.871Z,99587.91
2023-03-12T17:24:45.106Z,99592.35
2023-03-12T17:27:18.832Z,99596.48
2023-03-12T17:29:51.815Z,99599.58
2023-03-12T17:32:26.185Z,99599.88
2023-03-12T17:35:05.181Z,99597.89
2023-03-12T17:37:42.353Z,99606.58
2023-03-12T17:40:17.494Z,99610.01
2023-03-12T17:42:58.394Z,99611.59
2023-03-12T17:45:31.932Z,99604.80
2023-03-12T17:48:05.148Z,99603.67
2023-03-12T17:50:39.140Z,99603.11
2023-03-12T17:53:12.230Z,99600.65
2023-03-12T17:55:45.690Z,99599.02
2023-03-12T17:58:17.969Z,99595.90
2023-03-12T18:00:50.390Z,99594.90
2023-03-12T18:03:22.842Z,99589.09
2023-03-12T18:05:55.264Z,99588.21
2023-03-12T18:08:27.706Z,99582.99
2023-03-12T18:11:01.723Z,99585.40
2023-03-12T18:13:34.149Z,99587.39
2023-03-12T18:16:07.059Z,99592.39
2023-03-12T18:18:39.507Z,99587.41
2023-03-12T18:21:11.889Z,99586.33
2023-03-12T18:23:46.114Z,99575.98
2023-03-12T18:26:18.550Z,99574.14
2023-03-12T18:28:51.360Z,99572.61
2023-03-12T18:31:23.845Z,99579.17
2023-03-12T18:33:56.340Z,99582.58
2023-03-12T18:36:28.870Z,99591.94
2023-03-12T18:39:04.632Z,99599.05
2023-03-12T18:41:37.169Z,99601.08
2023-03-12T18:44:09.856Z,99611.73
2023-03-12T18:46:42.409Z,99610.56
2023-03-12T18:49:14.806Z,99612.36
2023-03-12T18:51:47.362Z,99616.54
2023-03-12T18:54:19.727Z,99616.90
2023-03-12T18:56:52.101Z,99622.90
2023-03-12T18:59:24.709Z,99635.30
2023-03-12T19:01:57.103Z,99644.17
2023-03-12T19:04:29.530Z,99648.27
2023-03-12T19:07:01.989Z,99653.12
2023-03-12T19:09:34.298Z,99652.25
2023-03-12T19:12:07.208Z,99651.71
2023-03-12T19:14:39.559Z,99647.19
2023-03-12T19:17:11.955Z,99646.54
2023-03-12T19:19:44.317Z,99649.48
2023-03-12T19:22:16.796Z,99643.77
2023-03-12T19:24:49.176Z,99644.69
2023-03-12T19:27:21.596Z,99650.33
2023-03-12T19:29:54.136Z,99646.05
2023-03-12T19:32:33.281Z,99651.41
2023-03-12T19:35:15.917Z,99656.85
2023-03-12T19:37:48.286Z,99657.58
2023-03-12T19:40:20.845Z,99658.14
2023-03-12T19:42:53.275Z,99656.86
2023-03-12T19:45:25.692Z,99659.25
2023-03-12T19:47:58.252Z,99657.70
2023-03-12T19:50:30.749Z,99656.14
2023-03-12T19:53:03.176Z,99655.67
2023-03-12T19:55:35.622Z,99653.33
2023-03-12T19:58:08.456Z,99648.29
2023-03-12T20:00:41.382Z,99650.20
2023-03-12T20:03:13.884Z,99653.80
2023-03-12T20:05:47.494Z,99647.29
2023-03-12T20:08:21.166Z,99644.59
2023-03-12T20:10:53.392Z,99638.51
2023-03-12T20:13:25.733Z,99632.85
2023-03-12T20:15:58.071Z,99630.41
2023-03-12T20:18:30.583Z,99628.77
2023-03-12T20:21:02.883Z,99635.28
2023-03-12T20:23:35.411Z,99632.65
2023-03-12T20:26:08.219Z,99628.52
2023-03-12T20:28:40.476Z,99617.77
2023-03-12T20:31:14.500Z,99614.83
2023-03-12T20:33:46.791Z,99606.65
2023-03-12T20:36:19.150Z,99603.91
2023-03-12T20:38:52.045Z,99603.42
2023-03-12T20:41:24.839Z,99603.03
2023-03-12T20:43:58.854Z,99598.06
2023-03-12T20:46:31.163Z,99596.10
2023-03-12T20:49:03.525Z,99591.40
2023-03-12T20:51:35.951Z,99597.08
2023-03-12T20:54:09.879Z,99598.23
2023-03-12T20:56:43.815Z,99601.89
2023-03-12T20:59:16.207Z,99609.69
2023-03-12T21:01:48.636Z,99622.74
2023-03-12T21:04:20.890Z,99619.31
2023-03-12T21:06:53.223Z,99613.45
2023-03-12T21:09:25.649Z,99608.38
2023-03-12T21:11:57.860Z,99613.99
2023-03-12T21:14:30.425Z,99612.11
2023-03-12T21:17:02.725Z,99610.81
2023-03-12T21:19:34.965Z,99607.33
2023-03-12T21:22:07.246Z,99608.39
2023-03-12T21:24:39.718Z,99604.96
2023-03-12T21:27:13.081Z,99600.20
2023-03-12T21:29:45.463Z,99596.20
2023-03-12T21:32:17.739Z,99594.96
2023-03-12T21:34:50.220Z,99600.79
2023-03-12T21:37:22.613Z,99598.70
2023-03-12T21:39:57.040Z,99589.09
2023-03-12T21:42:30.597Z,99588.61
2023-03-12T21:45:03.534Z,99582.84
2023-03-12T21:47:38.674Z,99583.34
2023-03-12T21:50:10.433Z,99582.38
2023-03-12T21:52:47.856Z,99576.06
2023-03-12T21:55:20.365Z,99566.09
2023-03-12T21:57:52.713Z,99561.52
2023-03-12T22:00:25.538Z,99555.69
2023-03-12T22:02:57.861Z,99548.25
2023-03-12T22:05:30.132Z,99542.16
2023-03-12T22:08:02.507Z,99542.80
2023-03-12T22:10:34.814Z,99545.76
2023-03-12T22:13:07.293Z,99546.02
2023-03-12T22:15:39.707Z,99543.27
2023-03-12T22:18:12.155Z,99540.91
2023-03-12T22:20:50.965Z,99532.27
2023-03-12T22:23:23.897Z,99529.77
2023-03-12T22:25:56.559Z,99522.83
2023-03-12T22:28:28.871Z,99517.42
2023-03-12T22:31:02.702Z,99509.98
2023-03-12T22:33:35.900Z,99504.15
2023-03-12T22:36:11.186Z,99500.48
2023-03-12T22:38:44.009Z,99496.59
2023-03-12T22:41:18.997Z,99501.77
2023-03-12T22:43:52.764Z,99499.26
2023-03-12T22:46:27.584Z,99498.10
2023-03-12T22:49:02.336Z,99508.16
2023-03-12T22:51:35.310Z,99505.09
2023-03-12T22:54:07.829Z,99501.97
2023-03-12T22:56:40.444Z,99496.16
2023-03-12T22:59:13.268Z,99497.45
2023-03-12T23:01:45.553Z,99500.69
2023-03-12T23:04:17.901Z,99493.84
2023-03-12T23:06:50.210Z,99486.45
2023-03-12T23:09:22.625Z,99487.03
2023-03-12T23:11:54.942Z,99479.54
2023-03-12T23:14:27.310Z,99480.97
2023-03-12T23:17:00.220Z,99482.10
2023-03-12T23:19:36.475Z,99479.27
2023-03-12T23:22:09.728Z,99483.23
2023-03-12T23:24:42.127Z,99483.16
2023-03-12T23:27:14.446Z,99486.48
2023-03-12T23:29:46.799Z,99488.87
2023-03-12T23:32:19.144Z,99483.10
2023-03-12T23:34:51.888Z,99478.69
2023-03-12T23:37:24.248Z,99478.48
2023-03-12T23:39:56.575Z,99484.66
2023-03-12T23:42:29.302Z,99487.02
2023-03-12T23:45:01.602Z,99480.11
2023-03-12T23:47:33.931Z,99485.34
2023-03-12T23:50:07.045Z,99493.86
2023-03-12T23:52:39.222Z,99484.99
2023-03-12T23:55:13.783Z,99483.77
2023-03-12T23:57:46.082Z,99491.44
